Aurora, CO (80044)

12:08 PM MDT on September 03, 2015 (GMT -0600)
East Stapleton | | Change Station
CLOSE
Current Station
Personal Weather Station
Location: Denver, CO
Elevation: 5331 ft
Nearby Weather Stations

Elev 5331 ft 39.77 °N, 104.84 °W | Updated 2 seconds ago

Overcast
Overcast
78.4 °F
Feels Like 79 °F
N
3.0
Wind Variable Wind from South
Gusts 6.0 mph

Today
High -- | Low -- °F
--% Chance of Precip.
Yesterday
High -- | Low -- °F
Precip. -- in
6:29 AM 7:27 PM
Waning Gibbous, 68% visible
Pressure 29.85 in
Visibility 10.0 miles
Clouds Scattered Clouds 7000 ft
Mostly Cloudy 11000 ft
Overcast 16000 ft
Heat Index 79 °F
Dew Point 48 °F
Humidity 34%
Rainfall 0.00 in
Snow Depth Not available.
UV 3 out of 12
Pollen 10.20 out of 12
Air Quality Not available.
Flu Activity Not available.
METAR KBKF 031758Z 30003KT 10SM SCT070 BKN110 OVC160 25/08 A3008 RMK AO2A SLP106 T02510075 10251 20187 50005
Pressure 29.85 in
Visibility 10.0 miles
Clouds Scattered Clouds 7000 ft
Mostly Cloudy 11000 ft
Overcast 16000 ft
Heat Index 79 °F
Dew Point 48 °F
Humidity 34%
Rainfall 0.00 in
Snow Depth Not available.
UV 3 out of 12
Pollen 10.20 out of 12
Air Quality Not available.
Flu Activity Not available.
METAR KBKF 031758Z 30003KT 10SM SCT070 BKN110 OVC160 25/08 A3008 RMK AO2A SLP106 T02510075 10251 20187 50005

10-Day Weather Forecast

×

Almanac

Astronomy

Sep. 03, 2015 Rise Set
Actual Time
Civil Twilight
Nautical Twilight
Astronomical Twilight
Moon
Length of Visible Light
Length of Day
Tomorrow will be .
, % of the Moon is Illuminated

Today's Extremes

State Highs State Lows

Community

WunderPhotos

Upload Photos

1,851,995 photos uploaded!

WunderBlogs® & News

Nearby

Air Quality

  Air Quality AQ Index Pollutant
Not available.

Snow Depth

Station Depth Elevation

Earthquake Activity

City Distance Mag. Time & Date
Minimum magnitude displayed is 2.5.

Coastal Water Temperatures

Place Temperature

Stations

Nearby Weather Stations

Station Location Temp. Windchill Dew Point Humidity Wind Precip. Elev Updated Type